Time;durP1;ratioP1;P1;durP2;ratioP2;P2;SDS_P1;SDS_P2;PMS_P1;PMS_P2;Temp;Humidity;BMP_temperature;BMP_pressure;BME280_temperature;BME280_humidity;BME280_pressure;Samples;Min_cycle;Max_cycle;Signal;HPM_P1;HPM_P2
2023/04/14 00:01:00;;;;;;;6.13;4.13;;;3.80;99.90;;;;;;5099980;28;20221;-84
2023/04/14 00:03:27;;;;;;;4.80;3.70;;;3.60;99.90;;;;;;5099627;28;20201;-84
2023/04/14 00:05:54;;;;;;;9.30;4.60;;;3.20;99.90;;;;;;5099490;28;20709;-85
2023/04/14 00:08:21;;;;;;;7.63;4.30;;;3.20;99.90;;;;;;5098643;28;20288;-84
2023/04/14 00:10:47;;;;;;;7.20;4.60;;;3.40;99.90;;;;;;5098639;28;20572;-84
2023/04/14 00:13:16;;;;;;;7.90;4.97;;;3.50;99.90;;;;;;5099696;28;20201;-86
2023/04/14 00:15:42;;;;;;;7.27;5.10;;;3.70;99.90;;;;;;5099691;28;20256;-86
2023/04/14 00:18:09;;;;;;;9.53;5.30;;;3.80;99.90;;;;;;5098884;28;20205;-85
2023/04/14 00:20:36;;;;;;;7.93;5.20;;;4.00;99.90;;;;;;5099035;28;20577;-85
2023/04/14 00:23:03;;;;;;;9.47;5.50;;;3.90;99.90;;;;;;5100023;28;20209;-85
2023/04/14 00:25:30;;;;;;;9.13;5.40;;;4.00;99.90;;;;;;5099336;28;20308;-84
2023/04/14 00:27:56;;;;;;;8.17;5.50;;;4.00;99.90;;;;;;5099114;28;20215;-85
2023/04/14 00:30:25;;;;;;;5.87;4.33;;;4.00;99.90;;;;;;5098898;28;20204;-85
2023/04/14 00:32:51;;;;;;;9.10;5.00;;;3.70;99.90;;;;;;5099891;28;20209;-85
2023/04/14 00:35:18;;;;;;;7.70;5.70;;;3.70;99.90;;;;;;5099838;28;20739;-84
2023/04/14 00:37:45;;;;;;;8.67;5.33;;;3.70;99.90;;;;;;5100019;28;20261;-85
2023/04/14 00:40:12;;;;;;;10.17;5.07;;;3.70;99.90;;;;;;5100437;28;20207;-86
2023/04/14 00:42:43;;;;;;;10.47;5.23;;;3.70;99.90;;;;;;5100389;28;20197;-86
2023/04/14 00:45:11;;;;;;;7.67;4.73;;;3.60;99.90;;;;;;5101059;28;20230;-85
2023/04/14 00:47:41;;;;;;;8.60;4.63;;;3.30;99.90;;;;;;5101045;28;20284;-85
2023/04/14 00:50:10;;;;;;;6.77;4.53;;;3.30;99.90;;;;;;5100490;28;20198;-86
2023/04/14 00:52:38;;;;;;;6.33;4.37;;;3.10;99.90;;;;;;5100564;28;20202;-87
2023/04/14 00:55:06;;;;;;;9.30;6.20;;;3.20;99.90;;;;;;5100460;28;20226;-84
2023/04/14 00:57:33;;;;;;;6.13;5.27;;;3.30;99.90;;;;;;5100505;28;20208;-85
2023/04/14 01:00:01;;;;;;;7.13;4.63;;;3.30;99.90;;;;;;5099613;28;20307;-84
2023/04/14 01:02:28;;;;;;;6.40;4.10;;;3.20;99.90;;;;;;5100328;28;20342;-87
2023/04/14 01:04:56;;;;;;;6.97;4.53;;;3.00;99.90;;;;;;5097123;28;21028;-85
2023/04/14 01:07:25;;;;;;;9.80;4.87;;;2.90;99.90;;;;;;5096877;28;20681;-85
2023/04/14 01:09:54;;;;;;;8.40;5.07;;;3.10;99.90;;;;;;5096643;28;20217;-85
2023/04/14 01:12:33;;;;;;;8.43;5.40;;;3.20;99.90;;;;;;5097748;28;20208;-85
2023/04/14 01:15:09;;;;;;;7.30;4.67;;;3.00;99.90;;;;;;5097756;28;20295;-85
2023/04/14 01:17:44;;;;;;;9.87;5.47;;;3.10;99.90;;;;;;5097564;28;20256;-84
2023/04/14 01:20:19;;;;;;;7.03;5.07;;;3.00;99.90;;;;;;5098192;28;20192;-86
2023/04/14 01:22:49;;;;;;;9.03;5.83;;;3.00;99.90;;;;;;5097719;28;20186;-85
2023/04/14 01:25:35;;;;;;;9.43;5.60;;;3.00;99.90;;;;;;5097678;28;20289;-85
2023/04/14 01:28:15;;;;;;;9.53;5.67;;;3.20;99.90;;;;;;5082665;28;20205;-85
2023/04/14 01:31:02;;;;;;;10.33;6.43;;;3.50;99.90;;;;;;5097097;28;20268;-85
2023/04/14 01:33:34;;;;;;;9.57;5.80;;;3.70;99.90;;;;;;5098137;28;20561;-85
2023/04/14 01:36:06;;;;;;;8.30;5.67;;;3.80;99.90;;;;;;5097872;28;20204;-84
2023/04/14 01:38:35;;;;;;;6.47;4.83;;;3.60;99.90;;;;;;5097542;28;20184;-85
2023/04/14 01:41:05;;;;;;;8.30;6.20;;;3.40;99.90;;;;;;5099987;28;20697;-84
2023/04/14 01:43:37;;;;;;;9.47;6.10;;;3.60;99.90;;;;;;5101686;28;20661;-85
2023/04/14 01:46:09;;;;;;;8.73;5.67;;;3.60;99.90;;;;;;5101420;28;20193;-86
2023/04/14 01:48:38;;;;;;;8.07;5.17;;;3.70;99.90;;;;;;5099402;28;20215;-84
2023/04/14 01:51:07;;;;;;;10.03;5.70;;;3.70;99.90;;;;;;5100860;28;20197;-86
2023/04/14 01:53:38;;;;;;;8.13;5.27;;;3.70;99.90;;;;;;5099750;28;20216;-84
2023/04/14 01:56:07;;;;;;;9.53;5.20;;;3.50;99.90;;;;;;5101646;28;20554;-84
2023/04/14 01:58:36;;;;;;;7.90;5.20;;;3.20;99.90;;;;;;5102770;28;20197;-84
2023/04/14 02:01:04;;;;;;;9.67;5.17;;;3.20;99.90;;;;;;5101125;28;20225;-85
2023/04/14 02:03:32;;;;;;;7.83;4.83;;;3.10;99.90;;;;;;5100538;28;20198;-85
2023/04/14 02:06:02;;;;;;;11.07;5.20;;;2.90;99.90;;;;;;5101863;28;20285;-85
2023/04/14 02:08:31;;;;;;;8.10;4.80;;;2.80;99.90;;;;;;5102239;28;20225;-85
2023/04/14 02:11:01;;;;;;;8.10;5.07;;;2.80;99.90;;;;;;5101769;28;20240;-84
2023/04/14 02:13:29;;;;;;;8.13;4.93;;;2.80;99.90;;;;;;5101135;28;20212;-85
2023/04/14 02:15:58;;;;;;;8.83;5.80;;;2.90;99.90;;;;;;5102326;28;20541;-85
2023/04/14 02:18:27;;;;;;;8.73;5.70;;;3.00;99.90;;;;;;5099460;28;20589;-85
2023/04/14 02:20:56;;;;;;;8.90;5.20;;;3.10;99.90;;;;;;5099285;28;20212;-86
2023/04/14 02:23:24;;;;;;;7.47;5.20;;;3.00;99.90;;;;;;5100856;28;20209;-85
2023/04/14 02:25:55;;;;;;;5.30;3.97;;;2.50;99.90;;;;;;5101600;28;20755;-84
2023/04/14 02:28:26;;;;;;;4.97;3.50;;;2.00;99.90;;;;;;5101345;28;20188;-85
2023/04/14 02:30:55;;;;;;;5.50;4.13;;;2.00;99.90;;;;;;5100900;28;20190;-85
2023/04/14 02:33:28;;;;;;;7.00;4.33;;;2.20;99.90;;;;;;5101175;28;20200;-85
2023/04/14 02:36:01;;;;;;;7.07;4.47;;;2.20;99.90;;;;;;5101282;28;20185;-85
2023/04/14 02:38:38;;;;;;;6.60;4.50;;;2.10;99.90;;;;;;5102447;28;20186;-85
2023/04/14 02:41:08;;;;;;;7.17;4.93;;;2.20;99.90;;;;;;5101721;28;20743;-86
2023/04/14 02:43:43;;;;;;;6.67;4.50;;;2.20;99.90;;;;;;5099925;28;20206;-86
2023/04/14 02:46:14;;;;;;;8.23;5.17;;;2.10;99.90;;;;;;5100315;28;20188;-85
2023/04/14 02:48:42;;;;;;;8.00;5.67;;;2.50;99.90;;;;;;5099594;28;20201;-87
2023/04/14 02:51:11;;;;;;;9.40;6.20;;;2.50;99.90;;;;;;5099725;28;20214;-85
2023/04/14 02:53:40;;;;;;;9.50;5.60;;;2.50;99.90;;;;;;5099689;28;20246;-84
2023/04/14 02:56:08;;;;;;;8.77;5.70;;;2.60;99.90;;;;;;5101531;28;20210;-86
2023/04/14 02:58:35;;;;;;;10.23;5.90;;;2.40;99.90;;;;;;5100100;28;20208;-85
2023/04/14 03:01:02;;;;;;;6.80;5.07;;;2.30;99.90;;;;;;5104789;28;20274;-85
2023/04/14 03:03:30;;;;;;;6.10;4.10;;;2.20;99.90;;;;;;5101733;28;20301;-84
2023/04/14 03:05:58;;;;;;;7.20;4.20;;;1.90;99.90;;;;;;5101373;28;20194;-86
2023/04/14 03:08:26;;;;;;;6.77;4.83;;;1.70;99.90;;;;;;5103946;28;20201;-85
2023/04/14 03:10:54;;;;;;;6.20;4.80;;;2.00;99.90;;;;;;5104898;28;20300;-84
2023/04/14 03:13:24;;;;;;;7.87;5.27;;;1.80;99.90;;;;;;5103002;28;20202;-86
2023/04/14 03:15:52;;;;;;;6.40;4.13;;;1.70;99.90;;;;;;5102797;28;20225;-84
2023/04/14 03:18:20;;;;;;;6.23;4.60;;;1.80;99.90;;;;;;5105551;28;20260;-84
2023/04/14 03:20:49;;;;;;;6.50;4.50;;;1.80;99.90;;;;;;5104406;28;20212;-84
2023/04/14 03:23:18;;;;;;;7.30;5.23;;;1.70;99.90;;;;;;5086960;28;20611;-83
2023/04/14 03:25:46;;;;;;;8.67;5.90;;;1.70;99.90;;;;;;5081349;28;20277;-82
2023/04/14 03:28:19;;;;;;;8.70;5.37;;;2.00;99.90;;;;;;5081169;28;20203;-85
2023/04/14 03:30:53;;;;;;;6.97;4.73;;;1.90;99.90;;;;;;5082315;28;20193;-84
2023/04/14 03:33:23;;;;;;;5.53;3.97;;;1.90;99.90;;;;;;5079726;28;20189;-82
2023/04/14 03:35:52;;;;;;;10.13;5.23;;;1.10;99.90;;;;;;5095418;28;20225;-81
2023/04/14 03:38:22;;;;;;;8.93;5.63;;;1.40;99.90;;;;;;5097739;28;20567;-84
2023/04/14 03:40:50;;;;;;;9.20;5.27;;;1.60;99.90;;;;;;5097798;28;20725;-84
2023/04/14 03:43:21;;;;;;;13.33;8.07;;;1.60;99.90;;;;;;5096000;28;20221;-86
2023/04/14 03:45:49;;;;;;;9.03;5.50;;;1.70;99.90;;;;;;5095921;28;20257;-83
2023/04/14 03:48:18;;;;;;;10.60;6.07;;;1.90;99.90;;;;;;5097310;28;20198;-85
2023/04/14 03:50:47;;;;;;;7.03;4.90;;;1.60;99.90;;;;;;5096919;28;20202;-83
2023/04/14 03:53:16;;;;;;;10.57;5.17;;;1.30;99.90;;;;;;5097555;28;20653;-84
2023/04/14 03:55:45;;;;;;;9.57;5.50;;;1.20;99.90;;;;;;5097072;28;20684;-84
2023/04/14 03:58:15;;;;;;;8.97;5.73;;;1.50;99.90;;;;;;5097207;28;20220;-85
2023/04/14 04:00:44;;;;;;;10.50;6.50;;;1.50;99.90;;;;;;5097129;28;20206;-85
2023/04/14 04:03:12;;;;;;;10.17;6.10;;;1.70;99.90;;;;;;5096007;28;20296;-84
2023/04/14 04:05:40;;;;;;;9.00;6.03;;;1.80;99.90;;;;;;5095738;28;20213;-86
2023/04/14 04:08:09;;;;;;;11.33;5.40;;;1.60;99.90;;;;;;5096233;28;20236;-87
2023/04/14 04:10:37;;;;;;;9.63;5.50;;;1.70;99.90;;;;;;5094608;28;20266;-86
2023/04/14 04:13:07;;;;;;;9.60;5.30;;;1.60;99.90;;;;;;5097082;28;20201;-86
2023/04/14 04:15:36;;;;;;;10.60;6.07;;;1.70;99.90;;;;;;5096954;28;20237;-86
2023/04/14 04:18:06;;;;;;;7.93;5.70;;;1.50;99.90;;;;;;5097620;28;20207;-86
2023/04/14 04:20:37;;;;;;;9.60;6.40;;;1.50;99.90;;;;;;5098458;28;20826;-84
2023/04/14 04:23:05;;;;;;;9.67;5.50;;;1.40;99.90;;;;;;5097748;28;20218;-86
2023/04/14 04:25:35;;;;;;;19.20;10.53;;;1.50;99.90;;;;;;5098055;28;20317;-84
2023/04/14 04:28:02;;;;;;;10.63;6.53;;;1.50;99.90;;;;;;5097411;28;20202;-83
2023/04/14 04:30:31;;;;;;;10.43;5.90;;;1.70;99.90;;;;;;5097197;28;20270;-84
2023/04/14 04:32:58;;;;;;;10.20;6.07;;;1.90;99.90;;;;;;5097075;28;20254;-84
2023/04/14 04:35:27;;;;;;;10.43;6.07;;;2.00;99.90;;;;;;5097549;28;20561;-85
2023/04/14 04:37:56;;;;;;;7.57;5.40;;;1.80;99.90;;;;;;5094845;28;20890;-84
2023/04/14 04:40:23;;;;;;;10.07;5.73;;;2.00;99.90;;;;;;5094015;28;20210;-84
2023/04/14 04:42:49;;;;;;;10.40;5.87;;;2.00;99.90;;;;;;5096270;28;20277;-84
2023/04/14 04:45:31;;;;;;;10.67;5.63;;;1.90;99.90;;;;;;5096866;28;20229;-84
2023/04/14 04:47:57;;;;;;;8.43;5.67;;;2.10;99.90;;;;;;5096788;28;20216;-84
2023/04/14 04:50:26;;;;;;;8.47;5.13;;;1.80;99.90;;;;;;5096582;28;20205;-84
2023/04/14 04:52:52;;;;;;;9.07;5.70;;;1.70;99.90;;;;;;5097678;28;20197;-85
2023/04/14 04:55:19;;;;;;;7.93;5.20;;;1.80;99.90;;;;;;5096427;28;20217;-83
2023/04/14 04:57:46;;;;;;;7.70;5.23;;;1.80;99.90;;;;;;5096491;28;20194;-85
2023/04/14 05:00:13;;;;;;;9.00;5.50;;;1.70;99.90;;;;;;5096888;28;20209;-84
2023/04/14 05:02:40;;;;;;;8.93;5.40;;;1.80;99.90;;;;;;5096797;28;20277;-84
2023/04/14 05:05:08;;;;;;;7.90;5.70;;;1.70;99.90;;;;;;5096327;28;20246;-83
2023/04/14 05:07:37;;;;;;;7.70;5.20;;;1.70;99.90;;;;;;5096915;28;20226;-86
2023/04/14 05:10:04;;;;;;;10.07;5.93;;;1.80;99.90;;;;;;5095658;28;20239;-83
2023/04/14 05:12:31;;;;;;;9.53;5.67;;;1.80;99.90;;;;;;5095100;28;20202;-84
2023/04/14 05:14:57;;;;;;;8.77;5.07;;;1.90;99.90;;;;;;5094597;28;20221;-83
2023/04/14 05:17:24;;;;;;;10.33;6.23;;;2.00;99.90;;;;;;5093366;28;20207;-84
2023/04/14 05:19:51;;;;;;;8.40;5.10;;;2.30;99.90;;;;;;5096135;28;20207;-85
2023/04/14 05:22:18;;;;;;;11.27;5.57;;;2.30;99.90;;;;;;5095074;28;20221;-82
2023/04/14 05:24:50;;;;;;;10.77;6.03;;;2.30;99.90;;;;;;5094378;28;20715;-82
2023/04/14 05:27:16;;;;;;;10.20;6.10;;;2.50;99.90;;;;;;5095653;28;20613;-83
2023/04/14 05:29:43;;;;;;;14.30;6.60;;;2.50;99.90;;;;;;5094878;28;20689;-84
2023/04/14 05:32:11;;;;;;;9.73;6.10;;;2.50;99.90;;;;;;5094640;28;20542;-84
2023/04/14 05:34:38;;;;;;;10.73;5.50;;;2.60;99.90;;;;;;5094621;28;20312;-84
2023/04/14 05:37:05;;;;;;;11.73;5.60;;;2.60;99.90;;;;;;5095158;28;20208;-84
2023/04/14 05:39:32;;;;;;;10.77;5.43;;;2.60;99.90;;;;;;5095275;28;20206;-84
2023/04/14 05:42:00;;;;;;;9.93;5.97;;;2.50;99.90;;;;;;5093838;28;20289;-84
2023/04/14 05:44:27;;;;;;;8.73;5.90;;;2.80;99.90;;;;;;5094845;28;20306;-83
2023/04/14 05:46:54;;;;;;;8.30;5.00;;;3.00;99.90;;;;;;5095223;28;20288;-83
2023/04/14 05:49:21;;;;;;;9.33;5.63;;;3.10;99.90;;;;;;5096116;28;20198;-83
2023/04/14 05:51:47;;;;;;;11.07;5.60;;;3.00;99.90;;;;;;5096365;28;20204;-83
2023/04/14 05:54:14;;;;;;;8.17;5.03;;;3.70;99.90;;;;;;5094934;28;20226;-84
2023/04/14 05:56:41;;;;;;;7.97;4.93;;;4.20;99.90;;;;;;5094455;28;20252;-85
2023/04/14 05:59:09;;;;;;;8.10;5.10;;;4.30;99.90;;;;;;5094259;28;20193;-84
2023/04/14 06:01:36;;;;;;;8.63;5.53;;;5.00;99.90;;;;;;5094735;28;20277;-84
2023/04/14 06:04:03;;;;;;;10.17;5.13;;;5.40;99.90;;;;;;5094735;28;20244;-85
2023/04/14 06:06:31;;;;;;;10.53;5.30;;;5.40;99.90;;;;;;5094350;28;20228;-86
2023/04/14 06:08:58;;;;;;;8.53;4.67;;;5.30;99.90;;;;;;5095324;28;20197;-85
2023/04/14 06:11:24;;;;;;;10.17;5.23;;;5.20;99.90;;;;;;5096465;28;20209;-84
2023/04/14 06:13:51;;;;;;;9.50;5.23;;;5.30;99.90;;;;;;5095162;28;20230;-85
2023/04/14 06:16:19;;;;;;;9.87;5.23;;;6.30;99.90;;;;;;5095437;28;20559;-85
2023/04/14 06:18:46;;;;;;;9.43;4.97;;;6.70;99.90;;;;;;5095540;28;20204;-85
2023/04/14 06:21:13;;;;;;;11.20;5.27;;;7.10;99.90;;;;;;5095487;28;20202;-85
2023/04/14 06:23:40;;;;;;;9.37;5.60;;;7.40;99.90;;;;;;5098308;28;20229;-86
2023/04/14 06:26:07;;;;;;;10.57;5.30;;;7.50;99.90;;;;;;5099502;28;20254;-84
2023/04/14 06:28:33;;;;;;;8.07;5.03;;;7.90;99.90;;;;;;5103066;28;20213;-83
2023/04/14 06:31:00;;;;;;;8.70;5.10;;;7.90;99.90;;;;;;5092916;28;20615;-85
2023/04/14 06:33:29;;;;;;;9.13;5.30;;;9.20;99.90;;;;;;5096807;28;20233;-82
2023/04/14 06:35:56;;;;;;;6.27;4.50;;;9.10;99.90;;;;;;5103472;28;20668;-83
2023/04/14 06:38:24;;;;;;;6.37;4.80;;;8.60;99.90;;;;;;5093837;28;20198;-84
2023/04/14 06:40:51;;;;;;;7.83;4.90;;;8.70;99.90;;;;;;5095815;28;20266;-84
2023/04/14 06:43:18;;;;;;;7.53;4.93;;;8.00;99.90;;;;;;5091730;28;20222;-83
2023/04/14 06:45:45;;;;;;;6.17;4.20;;;7.70;99.90;;;;;;5078480;28;20285;-84
2023/04/14 06:48:12;;;;;;;8.30;4.70;;;7.60;99.90;;;;;;5097655;28;20205;-83
2023/04/14 06:50:40;;;;;;;9.63;5.60;;;7.50;99.90;;;;;;5097501;28;20285;-84
2023/04/14 06:53:08;;;;;;;7.93;4.93;;;7.70;99.90;;;;;;5098591;28;20280;-84
2023/04/14 06:55:36;;;;;;;8.70;5.30;;;7.80;99.90;;;;;;5097826;28;20225;-85
2023/04/14 06:58:03;;;;;;;11.33;5.40;;;8.10;99.90;;;;;;5098596;28;20221;-84
2023/04/14 07:00:30;;;;;;;7.97;5.10;;;8.30;99.90;;;;;;5097659;28;20208;-84
2023/04/14 07:02:57;;;;;;;7.57;5.00;;;8.50;99.90;;;;;;5096501;28;20595;-84
2023/04/14 07:05:24;;;;;;;7.70;5.37;;;8.50;99.90;;;;;;5099843;28;20225;-84
2023/04/14 07:07:52;;;;;;;12.17;5.50;;;8.40;99.90;;;;;;5099165;28;20205;-84
2023/04/14 07:10:19;;;;;;;8.73;4.97;;;8.40;99.90;;;;;;5099404;28;20280;-83
2023/04/14 07:12:46;;;;;;;8.03;5.63;;;8.30;99.90;;;;;;5097444;28;20189;-82
2023/04/14 07:15:14;;;;;;;9.93;5.83;;;8.50;99.90;;;;;;5096957;28;20278;-83
2023/04/14 07:17:40;;;;;;;11.33;5.90;;;8.70;99.90;;;;;;5090481;28;20217;-84
2023/04/14 07:20:09;;;;;;;8.70;5.50;;;8.90;99.90;;;;;;5090555;28;20204;-83
2023/04/14 07:22:36;;;;;;;10.93;6.33;;;9.00;99.90;;;;;;5097932;28;20727;-84
2023/04/14 07:25:04;;;;;;;10.83;6.50;;;9.10;99.90;;;;;;5090149;28;20348;-84
2023/04/14 07:27:31;;;;;;;10.90;6.23;;;8.80;99.90;;;;;;5091325;28;20200;-86
2023/04/14 07:29:58;;;;;;;14.10;7.80;;;8.90;99.90;;;;;;5087174;28;20215;-84
2023/04/14 07:32:27;;;;;;;10.53;6.63;;;9.20;99.90;;;;;;5092979;28;20270;-82
2023/04/14 07:34:54;;;;;;;8.90;5.73;;;9.50;99.90;;;;;;5093993;28;20221;-82
2023/04/14 07:37:21;;;;;;;11.60;5.90;;;9.70;99.90;;;;;;5082305;28;20198;-84
2023/04/14 07:39:48;;;;;;;12.00;6.40;;;10.30;99.90;;;;;;5090589;28;20201;-84
2023/04/14 07:42:16;;;;;;;10.23;6.20;;;10.40;99.90;;;;;;5091482;28;20208;-85
2023/04/14 07:44:43;;;;;;;11.00;5.77;;;10.20;99.90;;;;;;5077197;28;20248;-84
2023/04/14 07:47:10;;;;;;;9.80;6.00;;;10.50;99.90;;;;;;5089967;28;20198;-84
2023/04/14 07:49:37;;;;;;;12.97;6.60;;;10.50;99.90;;;;;;5087512;28;20547;-83
2023/04/14 07:52:04;;;;;;;9.40;5.77;;;10.40;99.90;;;;;;5089562;28;20205;-84
2023/04/14 07:54:31;;;;;;;9.33;6.20;;;10.30;99.90;;;;;;5088978;28;20681;-84
2023/04/14 07:56:58;;;;;;;10.27;5.93;;;10.00;99.90;;;;;;5084305;28;20216;-84
2023/04/14 07:59:26;;;;;;;10.40;6.73;;;10.20;99.90;;;;;;5085680;28;20202;-84
2023/04/14 08:01:53;;;;;;;11.00;5.93;;;10.30;99.90;;;;;;5091484;28;20569;-85
2023/04/14 08:04:20;;;;;;;12.17;5.50;;;10.60;99.90;;;;;;5083593;28;20660;-84
2023/04/14 08:06:47;;;;;;;9.50;5.73;;;10.60;99.90;;;;;;5083551;28;20205;-84
2023/04/14 08:09:14;;;;;;;7.43;4.80;;;10.50;99.90;;;;;;5090439;28;20202;-85
2023/04/14 08:11:41;;;;;;;8.80;4.83;;;10.60;99.90;;;;;;5091238;28;20214;-84
2023/04/14 08:14:08;;;;;;;9.63;4.53;;;10.70;99.90;;;;;;5086664;28;20252;-85
2023/04/14 08:16:36;;;;;;;7.67;4.93;;;10.40;99.90;;;;;;5082043;28;20212;-84
2023/04/14 08:19:04;;;;;;;7.10;4.53;;;10.40;99.90;;;;;;5084537;28;20202;-84
2023/04/14 08:21:31;;;;;;;5.37;4.37;;;10.40;99.90;;;;;;5081479;28;20202;-85
2023/04/14 08:23:58;;;;;;;9.47;5.00;;;10.60;99.90;;;;;;5087053;28;20599;-84
2023/04/14 08:26:26;;;;;;;8.93;4.77;;;10.80;99.90;;;;;;5077769;28;20834;-86
2023/04/14 08:28:53;;;;;;;10.23;5.23;;;11.00;99.90;;;;;;5083391;28;20285;-86
2023/04/14 08:31:23;;;;;;;10.70;5.00;;;11.10;99.90;;;;;;5084110;28;20199;-84
2023/04/14 08:33:52;;;;;;;9.87;4.60;;;11.20;99.90;;;;;;5084059;28;20597;-84
2023/04/14 08:36:18;;;;;;;9.57;5.27;;;10.90;99.90;;;;;;5089334;28;20230;-83
2023/04/14 08:38:46;;;;;;;10.00;5.00;;;11.10;99.90;;;;;;5091097;28;20205;-85
2023/04/14 08:41:13;;;;;;;7.63;4.23;;;11.10;99.90;;;;;;5090053;28;20195;-83
2023/04/14 08:43:40;;;;;;;8.13;4.43;;;11.50;99.90;;;;;;5090062;28;20327;-84
2023/04/14 08:46:10;;;;;;;7.43;4.43;;;11.60;99.90;;;;;;5085899;28;20235;-84
2023/04/14 08:48:38;;;;;;;6.67;4.80;;;11.60;99.90;;;;;;5087453;28;20205;-84
2023/04/14 08:51:30;;;;;;;9.27;4.73;;;11.60;99.90;;;;;;5085154;28;20201;-85
2023/04/14 08:53:57;;;;;;;6.77;3.73;;;11.50;99.90;;;;;;5080056;28;20236;-83
2023/04/14 08:56:28;;;;;;;6.20;4.00;;;11.70;99.90;;;;;;5081944;28;20696;-85
2023/04/14 08:58:56;;;;;;;7.97;4.50;;;11.70;99.90;;;;;;5083189;28;20274;-84
2023/04/14 09:01:23;;;;;;;7.87;4.30;;;11.90;99.90;;;;;;5081153;28;20233;-84
2023/04/14 09:03:52;;;;;;;4.97;3.73;;;12.50;99.90;;;;;;5086116;28;20229;-83
2023/04/14 09:06:20;;;;;;;4.67;3.60;;;12.20;99.90;;;;;;5096117;28;20194;-83
2023/04/14 09:08:48;;;;;;;5.97;4.17;;;12.40;99.90;;;;;;5089157;28;20647;-84
2023/04/14 09:11:16;;;;;;;7.63;4.20;;;12.60;99.90;;;;;;5084341;28;20593;-84
2023/04/14 09:13:44;;;;;;;5.00;3.47;;;12.80;99.90;;;;;;5084769;28;20574;-84
2023/04/14 09:16:13;;;;;;;6.03;3.80;;;12.70;99.90;;;;;;5085650;28;20198;-84
2023/04/14 09:18:40;;;;;;;5.80;3.97;;;13.10;99.90;;;;;;5081713;28;20204;-86
2023/04/14 09:21:07;;;;;;;7.73;3.90;;;12.90;99.90;;;;;;5086205;28;20226;-85
2023/04/14 09:23:36;;;;;;;6.13;3.50;;;12.80;99.90;;;;;;5090386;28;20225;-83
2023/04/14 09:26:08;;;;;;;6.10;3.50;;;13.40;99.90;;;;;;5091254;28;20232;-84
2023/04/14 09:28:34;;;;;;;6.13;3.97;;;13.20;99.90;;;;;;5083707;28;20201;-84
2023/04/14 09:31:01;;;;;;;6.63;3.47;;;13.50;99.90;;;;;;5088703;28;20202;-84
2023/04/14 09:33:29;;;;;;;4.80;3.20;;;13.20;99.90;;;;;;5091500;28;20642;-81
2023/04/14 09:35:56;;;;;;;5.23;3.50;;;13.50;99.90;;;;;;5085211;28;21538;-83
2023/04/14 09:38:33;;;;;;;6.50;3.60;;;13.50;99.90;;;;;;5078391;28;20209;-81
2023/04/14 09:41:02;;;;;;;5.50;3.60;;;13.30;99.90;;;;;;5078718;28;20261;-83
2023/04/14 09:43:29;;;;;;;8.83;4.07;;;13.60;99.90;;;;;;5087606;28;20222;-84
2023/04/14 09:45:57;;;;;;;6.43;3.90;;;13.90;99.90;;;;;;5085004;28;20218;-83
2023/04/14 09:48:24;;;;;;;8.60;3.87;;;14.00;99.90;;;;;;5092685;28;20289;-84
2023/04/14 09:50:59;;;;;;;6.57;3.90;;;13.50;99.90;;;;;;5084625;28;20202;-83
2023/04/14 09:53:28;;;;;;;6.40;3.87;;;13.70;99.90;;;;;;5081228;28;20201;-84
2023/04/14 09:55:55;;;;;;;6.53;4.00;;;13.70;99.90;;;;;;5088264;28;20240;-84
2023/04/14 09:58:24;;;;;;;4.93;3.93;;;13.40;99.90;;;;;;5082101;28;20204;-84
2023/04/14 10:00:51;;;;;;;7.80;4.17;;;13.70;99.90;;;;;;5080794;28;20209;-85
2023/04/14 10:03:35;;;;;;;7.10;3.50;;;14.00;99.90;;;;;;5096621;28;20193;-86
2023/04/14 10:06:03;;;;;;;4.70;3.23;;;13.90;99.90;;;;;;5089070;28;20205;-85
2023/04/14 10:08:38;;;;;;;5.83;4.03;;;13.70;99.90;;;;;;5094624;28;20562;-86
2023/04/14 10:11:19;;;;;;;8.50;3.83;;;13.80;99.90;;;;;;5099021;28;20208;-85
2023/04/14 10:13:49;;;;;;;6.18;4.10;;;14.20;99.90;;;;;;5086237;28;20280;-85
2023/04/14 10:16:17;;;;;;;4.50;3.30;;;14.70;99.90;;;;;;5086896;28;20567;-85
2023/04/14 10:18:44;;;;;;;7.00;3.90;;;14.30;99.90;;;;;;5081812;28;20263;-86
2023/04/14 10:21:11;;;;;;;7.60;4.35;;;14.50;99.90;;;;;;5098340;28;20220;-86
2023/04/14 10:23:40;;;;;;;6.18;4.00;;;14.20;99.90;;;;;;5089425;28;20986;-85
2023/04/14 10:26:08;;;;;;;9.40;4.38;;;14.40;99.90;;;;;;5090956;28;20197;-84
2023/04/14 10:28:35;;;;;;;5.10;3.28;;;14.50;99.90;;;;;;5087331;28;20639;-84
2023/04/14 10:31:07;;;;;;;5.03;3.65;;;14.30;99.90;;;;;;5094085;28;20924;-85
2023/04/14 10:33:37;;;;;;;8.73;4.82;;;13.90;99.90;;;;;;5087867;28;20202;-86
2023/04/14 10:36:05;;;;;;;7.20;3.97;;;14.30;99.90;;;;;;5099645;28;20229;-85
2023/04/14 10:38:42;;;;;;;7.87;3.87;;;14.40;99.90;;;;;;5093467;28;20198;-86
2023/04/14 10:41:10;;;;;;;7.22;4.30;;;14.30;99.90;;;;;;5093983;28;20204;-85
2023/04/14 10:43:38;;;;;;;5.67;4.00;;;13.90;99.90;;;;;;5097322;28;20285;-85
2023/04/14 10:46:08;;;;;;;7.03;4.18;;;13.60;99.90;;;;;;5097979;28;20201;-86
2023/04/14 10:48:39;;;;;;;6.63;4.37;;;13.90;99.90;;;;;;5091673;28;20204;-85
2023/04/14 10:51:08;;;;;;;7.20;3.72;;;13.80;99.90;;;;;;5096513;28;20211;-86
2023/04/14 10:53:37;;;;;;;7.20;4.37;;;14.70;99.90;;;;;;5096104;28;20205;-87
2023/04/14 10:56:06;;;;;;;7.07;3.80;;;13.80;1.00;;;;;;5080442;28;20205;-88
2023/04/14 10:58:35;;;;;;;5.43;3.77;;;13.90;1.00;;;;;;5083519;28;20612;-86
2023/04/14 11:01:29;;;;;;;7.97;4.20;;;14.30;37.50;;;;;;5093716;28;20247;-86
2023/04/14 11:03:56;;;;;;;7.83;4.43;;;14.20;1.00;;;;;;5090972;28;20226;-83
2023/04/14 11:06:49;;;;;;;6.32;3.80;;;14.30;99.90;;;;;;5094182;28;20189;-88
2023/04/14 11:09:31;;;;;;;5.70;4.55;;;14.30;1.00;;;;;;5080727;28;20201;-85
2023/04/14 11:12:04;;;;;;;7.38;4.05;;;13.90;1.00;;;;;;5087322;28;20275;-85
2023/04/14 11:14:32;;;;;;;7.03;4.40;;;13.80;1.00;;;;;;5092726;28;20239;-86
2023/04/14 11:17:03;;;;;;;7.40;4.10;;;13.80;99.90;;;;;;5085566;28;20202;-86
2023/04/14 11:19:30;;;;;;;6.63;4.27;;;14.20;99.90;;;;;;5076238;28;20194;-84
2023/04/14 11:21:57;;;;;;;7.50;4.53;;;14.00;99.90;;;;;;5093946;28;20202;-87
2023/04/14 11:24:25;;;;;;;6.50;4.10;;;13.90;1.00;;;;;;5078710;28;20236;-86
2023/04/14 11:26:53;;;;;;;6.77;4.23;;;14.30;1.00;;;;;;5089961;28;20210;-86
2023/04/14 11:29:20;;;;;;;7.75;4.47;;;14.40;99.90;;;;;;5094658;28;20193;-84
2023/04/14 11:31:58;;;;;;;5.93;4.28;;;14.60;1.00;;;;;;5083629;28;20207;-84
2023/04/14 11:34:27;;;;;;;8.02;4.35;;;14.80;1.00;;;;;;5096721;28;20221;-85
2023/04/14 11:36:54;;;;;;;6.88;4.07;;;14.90;1.00;;;;;;5096798;28;20202;-85
2023/04/14 11:39:22;;;;;;;6.53;4.35;;;15.10;99.90;;;;;;5096190;28;20208;-84
2023/04/14 11:41:50;;;;;;;8.65;5.00;;;14.70;1.00;;;;;;5096659;28;20194;-86
2023/04/14 11:44:18;;;;;;;7.93;4.90;;;15.00;99.90;;;;;;5096719;28;20229;-85
2023/04/14 11:46:44;;;;;;;6.35;4.50;;;15.00;59.10;;;;;;5097023;28;20196;-84
2023/04/14 11:49:11;;;;;;;6.32;4.75;;;15.00;1.00;;;;;;5098660;28;20280;-85
2023/04/14 11:51:40;;;;;;;7.65;4.57;;;15.40;99.90;;;;;;5097389;28;20202;-85
2023/04/14 11:54:06;;;;;;;7.45;4.43;;;15.30;1.00;;;;;;5097606;28;20248;-85
2023/04/14 11:56:33;;;;;;;4.93;4.30;;;15.10;1.00;;;;;;5083341;28;20213;-87
2023/04/14 11:59:01;;;;;;;7.55;5.35;;;15.30;1.00;;;;;;5091233;28;20208;-85
2023/04/14 12:01:29;;;;;;;5.60;4.65;;;15.40;99.90;;;;;;5098760;28;20235;-88
2023/04/14 12:03:56;;;;;;;7.05;4.90;;;15.40;1.00;;;;;;5078479;28;20581;-86
2023/04/14 12:06:25;;;;;;;7.53;5.20;;;14.70;99.90;;;;;;5096898;28;20197;-86
2023/04/14 12:08:55;;;;;;;8.18;5.07;;;14.80;1.00;;;;;;5087660;28;20206;-87
2023/04/14 12:11:22;;;;;;;8.52;5.50;;;14.80;53.50;;;;;;5082465;28;20209;-86
2023/04/14 12:13:51;;;;;;;8.63;5.68;;;14.70;99.90;;;;;;5080463;28;20212;-86
2023/04/14 12:16:18;;;;;;;7.75;5.63;;;14.40;99.90;;;;;;5086746;28;20205;-85
2023/04/14 12:18:46;;;;;;;8.05;5.55;;;13.90;1.00;;;;;;5069702;28;20307;-86
2023/04/14 12:21:18;;;;;;;9.30;5.57;;;14.00;98.80;;;;;;5086701;28;20193;-85
2023/04/14 12:23:48;;;;;;;8.18;5.63;;;14.20;1.00;;;;;;5088381;28;20199;-86
2023/04/14 12:26:16;;;;;;;9.85;6.07;;;14.70;99.90;;;;;;5072790;28;20565;-85
2023/04/14 12:28:43;;;;;;;9.43;6.18;;;14.40;1.00;;;;;;5073661;28;20202;-83
2023/04/14 12:31:11;;;;;;;8.05;5.45;;;14.50;1.00;;;;;;5078358;28;20248;-85
2023/04/14 12:33:38;;;;;;;7.95;5.60;;;14.80;99.90;;;;;;5089623;28;20260;-86
2023/04/14 12:36:08;;;;;;;8.68;5.85;;;15.30;5.70;;;;;;5082520;28;20199;-86
2023/04/14 12:38:35;;;;;;;8.15;5.85;;;14.90;99.90;;;;;;5091982;28;20634;-83
2023/04/14 12:41:02;;;;;;;8.32;5.63;;;15.00;99.90;;;;;;5091369;28;20209;-87
2023/04/14 12:43:31;;;;;;;11.77;6.55;;;14.80;1.00;;;;;;5081032;28;20203;-85
2023/04/14 12:45:59;;;;;;;7.30;5.22;;;15.00;1.00;;;;;;5095782;28;20228;-86
2023/04/14 12:48:43;;;;;;;8.45;5.55;;;14.90;1.00;;;;;;5089224;28;20334;-86
2023/04/14 12:51:11;;;;;;;6.43;5.30;;;14.70;99.90;;;;;;5079312;28;20220;-86
2023/04/14 12:53:38;;;;;;;8.68;5.43;;;15.00;99.90;;;;;;5088403;28;20202;-84
2023/04/14 12:56:10;;;;;;;7.10;5.40;;;15.00;99.90;;;;;;5087208;28;20198;-85
2023/04/14 12:58:39;;;;;;;6.22;5.30;;;14.70;99.90;;;;;;5074797;28;20205;-84
2023/04/14 13:01:07;;;;;;;8.75;5.03;;;14.80;99.90;;;;;;5076081;28;20212;-86